sensor_id;sensor_type;location;lat;lon;timestamp;P1;durP1;ratioP1;P2;durP2;ratioP2
17361;SDS011;8798;51.938;4.348;2023-09-08T00:02:12;13.20;;;9.35;;
17361;SDS011;8798;51.938;4.348;2023-09-08T00:04:40;13.48;;;9.02;;
17361;SDS011;8798;51.938;4.348;2023-09-08T00:07:08;12.95;;;8.23;;
17361;SDS011;8798;51.938;4.348;2023-09-08T00:09:38;16.25;;;8.98;;
17361;SDS011;8798;51.938;4.348;2023-09-08T00:12:06;11.88;;;8.48;;
17361;SDS011;8798;51.938;4.348;2023-09-08T00:14:37;15.75;;;9.50;;
17361;SDS011;8798;51.938;4.348;2023-09-08T00:17:07;13.75;;;9.13;;
17361;SDS011;8798;51.938;4.348;2023-09-08T00:19:36;14.77;;;9.68;;
17361;SDS011;8798;51.938;4.348;2023-09-08T00:22:04;13.57;;;9.68;;
17361;SDS011;8798;51.938;4.348;2023-09-08T00:24:33;13.87;;;8.57;;
17361;SDS011;8798;51.938;4.348;2023-09-08T00:27:02;13.90;;;8.80;;
17361;SDS011;8798;51.938;4.348;2023-09-08T00:29:32;14.17;;;9.43;;
17361;SDS011;8798;51.938;4.348;2023-09-08T00:32:08;12.17;;;8.47;;
17361;SDS011;8798;51.938;4.348;2023-09-08T00:34:36;10.60;;;7.88;;
17361;SDS011;8798;51.938;4.348;2023-09-08T00:37:04;13.57;;;8.90;;
17361;SDS011;8798;51.938;4.348;2023-09-08T00:39:34;10.48;;;8.07;;
17361;SDS011;8798;51.938;4.348;2023-09-08T00:42:05;11.65;;;8.65;;
17361;SDS011;8798;51.938;4.348;2023-09-08T00:44:34;13.68;;;8.77;;
17361;SDS011;8798;51.938;4.348;2023-09-08T00:47:02;11.40;;;8.03;;
17361;SDS011;8798;51.938;4.348;2023-09-08T00:49:32;13.97;;;9.13;;
17361;SDS011;8798;51.938;4.348;2023-09-08T00:52:00;12.37;;;8.90;;
17361;SDS011;8798;51.938;4.348;2023-09-08T00:54:28;15.27;;;8.73;;
17361;SDS011;8798;51.938;4.348;2023-09-08T00:56:57;12.23;;;8.47;;
17361;SDS011;8798;51.938;4.348;2023-09-08T00:59:25;13.63;;;9.27;;
17361;SDS011;8798;51.938;4.348;2023-09-08T01:01:53;12.27;;;8.90;;
17361;SDS011;8798;51.938;4.348;2023-09-08T01:04:22;13.27;;;9.50;;
17361;SDS011;8798;51.938;4.348;2023-09-08T01:06:51;14.23;;;9.20;;
17361;SDS011;8798;51.938;4.348;2023-09-08T01:09:20;14.10;;;9.30;;
17361;SDS011;8798;51.938;4.348;2023-09-08T01:11:48;13.73;;;9.47;;
17361;SDS011;8798;51.938;4.348;2023-09-08T01:14:17;14.10;;;9.43;;
17361;SDS011;8798;51.938;4.348;2023-09-08T01:16:46;15.23;;;9.50;;
17361;SDS011;8798;51.938;4.348;2023-09-08T01:19:17;11.63;;;8.17;;
17361;SDS011;8798;51.938;4.348;2023-09-08T01:21:57;14.68;;;9.43;;
17361;SDS011;8798;51.938;4.348;2023-09-08T01:27:40;15.57;;;8.77;;
17361;SDS011;8798;51.938;4.348;2023-09-08T01:30:13;13.17;;;9.10;;
17361;SDS011;8798;51.938;4.348;2023-09-08T01:32:42;11.93;;;8.67;;
17361;SDS011;8798;51.938;4.348;2023-09-08T01:35:11;12.00;;;8.67;;
17361;SDS011;8798;51.938;4.348;2023-09-08T01:37:40;13.60;;;9.13;;
17361;SDS011;8798;51.938;4.348;2023-09-08T01:40:11;12.53;;;8.47;;
17361;SDS011;8798;51.938;4.348;2023-09-08T01:42:39;13.73;;;8.47;;
17361;SDS011;8798;51.938;4.348;2023-09-08T01:45:10;13.83;;;8.87;;
17361;SDS011;8798;51.938;4.348;2023-09-08T01:47:38;13.33;;;8.73;;
17361;SDS011;8798;51.938;4.348;2023-09-08T01:50:06;12.77;;;8.23;;
17361;SDS011;8798;51.938;4.348;2023-09-08T01:52:34;13.23;;;8.63;;
17361;SDS011;8798;51.938;4.348;2023-09-08T01:55:03;12.00;;;8.57;;
17361;SDS011;8798;51.938;4.348;2023-09-08T01:57:33;11.77;;;8.50;;
17361;SDS011;8798;51.938;4.348;2023-09-08T02:00:01;12.27;;;8.80;;
17361;SDS011;8798;51.938;4.348;2023-09-08T02:02:29;12.03;;;8.77;;
17361;SDS011;8798;51.938;4.348;2023-09-08T02:04:57;15.53;;;8.90;;
17361;SDS011;8798;51.938;4.348;2023-09-08T02:07:25;13.20;;;8.80;;
17361;SDS011;8798;51.938;4.348;2023-09-08T02:09:52;13.43;;;9.33;;
17361;SDS011;8798;51.938;4.348;2023-09-08T02:12:20;13.27;;;8.43;;
17361;SDS011;8798;51.938;4.348;2023-09-08T02:14:50;11.80;;;8.57;;
17361;SDS011;8798;51.938;4.348;2023-09-08T02:17:19;12.47;;;8.67;;
17361;SDS011;8798;51.938;4.348;2023-09-08T02:19:47;13.73;;;8.90;;
17361;SDS011;8798;51.938;4.348;2023-09-08T02:22:15;10.93;;;8.33;;
17361;SDS011;8798;51.938;4.348;2023-09-08T02:24:43;14.13;;;8.47;;
17361;SDS011;8798;51.938;4.348;2023-09-08T02:27:11;12.17;;;8.23;;
17361;SDS011;8798;51.938;4.348;2023-09-08T02:29:39;13.10;;;8.30;;
17361;SDS011;8798;51.938;4.348;2023-09-08T02:32:08;10.67;;;8.17;;
17361;SDS011;8798;51.938;4.348;2023-09-08T02:34:36;12.57;;;8.33;;
17361;SDS011;8798;51.938;4.348;2023-09-08T02:37:04;13.03;;;8.80;;
17361;SDS011;8798;51.938;4.348;2023-09-08T02:39:32;12.03;;;8.40;;
17361;SDS011;8798;51.938;4.348;2023-09-08T02:42:00;14.30;;;8.70;;
17361;SDS011;8798;51.938;4.348;2023-09-08T02:44:28;13.17;;;8.90;;
17361;SDS011;8798;51.938;4.348;2023-09-08T02:46:57;15.67;;;8.73;;
17361;SDS011;8798;51.938;4.348;2023-09-08T02:49:26;13.37;;;8.33;;
17361;SDS011;8798;51.938;4.348;2023-09-08T02:51:54;13.03;;;8.97;;
17361;SDS011;8798;51.938;4.348;2023-09-08T02:54:22;11.93;;;8.50;;
17361;SDS011;8798;51.938;4.348;2023-09-08T02:56:50;12.33;;;8.40;;
17361;SDS011;8798;51.938;4.348;2023-09-08T02:59:18;12.27;;;8.10;;
17361;SDS011;8798;51.938;4.348;2023-09-08T03:01:47;11.13;;;8.27;;
17361;SDS011;8798;51.938;4.348;2023-09-08T03:04:15;13.70;;;7.97;;
17361;SDS011;8798;51.938;4.348;2023-09-08T03:06:44;11.77;;;8.43;;
17361;SDS011;8798;51.938;4.348;2023-09-08T03:09:12;11.37;;;7.57;;
17361;SDS011;8798;51.938;4.348;2023-09-08T03:11:40;12.67;;;7.80;;
17361;SDS011;8798;51.938;4.348;2023-09-08T03:14:08;11.57;;;7.87;;
17361;SDS011;8798;51.938;4.348;2023-09-08T03:16:36;14.73;;;7.87;;
17361;SDS011;8798;51.938;4.348;2023-09-08T03:19:04;11.60;;;7.77;;
17361;SDS011;8798;51.938;4.348;2023-09-08T03:21:33;10.87;;;8.03;;
17361;SDS011;8798;51.938;4.348;2023-09-08T03:24:02;9.63;;;7.60;;
17361;SDS011;8798;51.938;4.348;2023-09-08T03:26:30;11.23;;;8.33;;
17361;SDS011;8798;51.938;4.348;2023-09-08T03:28:58;11.30;;;7.47;;
17361;SDS011;8798;51.938;4.348;2023-09-08T03:31:26;12.27;;;7.83;;
17361;SDS011;8798;51.938;4.348;2023-09-08T03:33:55;11.67;;;7.10;;
17361;SDS011;8798;51.938;4.348;2023-09-08T03:36:23;12.07;;;8.00;;
17361;SDS011;8798;51.938;4.348;2023-09-08T03:38:51;10.83;;;6.97;;
17361;SDS011;8798;51.938;4.348;2023-09-08T03:41:20;11.07;;;7.70;;
17361;SDS011;8798;51.938;4.348;2023-09-08T03:43:48;11.10;;;7.40;;
17361;SDS011;8798;51.938;4.348;2023-09-08T03:46:16;10.07;;;7.73;;
17361;SDS011;8798;51.938;4.348;2023-09-08T03:48:44;11.67;;;8.17;;
17361;SDS011;8798;51.938;4.348;2023-09-08T03:51:12;10.83;;;8.00;;
17361;SDS011;8798;51.938;4.348;2023-09-08T03:53:40;11.23;;;7.50;;
17361;SDS011;8798;51.938;4.348;2023-09-08T03:56:08;12.53;;;8.23;;
17361;SDS011;8798;51.938;4.348;2023-09-08T03:58:38;13.40;;;8.17;;
17361;SDS011;8798;51.938;4.348;2023-09-08T04:01:06;13.53;;;8.97;;
17361;SDS011;8798;51.938;4.348;2023-09-08T04:03:34;10.93;;;7.87;;
17361;SDS011;8798;51.938;4.348;2023-09-08T04:06:02;10.57;;;7.60;;
17361;SDS011;8798;51.938;4.348;2023-09-08T04:08:30;11.77;;;8.10;;
17361;SDS011;8798;51.938;4.348;2023-09-08T04:10:58;14.70;;;9.00;;
17361;SDS011;8798;51.938;4.348;2023-09-08T04:13:26;11.40;;;7.90;;
17361;SDS011;8798;51.938;4.348;2023-09-08T04:15:55;10.67;;;7.97;;
17361;SDS011;8798;51.938;4.348;2023-09-08T04:18:23;11.97;;;7.50;;
17361;SDS011;8798;51.938;4.348;2023-09-08T04:20:52;11.37;;;7.60;;
17361;SDS011;8798;51.938;4.348;2023-09-08T04:23:19;12.30;;;8.03;;
17361;SDS011;8798;51.938;4.348;2023-09-08T04:25:47;12.97;;;8.13;;
17361;SDS011;8798;51.938;4.348;2023-09-08T04:28:15;11.13;;;8.43;;
17361;SDS011;8798;51.938;4.348;2023-09-08T04:30:43;12.27;;;8.30;;
17361;SDS011;8798;51.938;4.348;2023-09-08T04:33:13;11.57;;;7.80;;
17361;SDS011;8798;51.938;4.348;2023-09-08T04:35:41;13.00;;;8.63;;
17361;SDS011;8798;51.938;4.348;2023-09-08T04:38:09;11.37;;;7.90;;
17361;SDS011;8798;51.938;4.348;2023-09-08T04:40:39;12.23;;;8.23;;
17361;SDS011;8798;51.938;4.348;2023-09-08T04:43:08;10.07;;;7.57;;
17361;SDS011;8798;51.938;4.348;2023-09-08T04:45:36;17.13;;;8.50;;
17361;SDS011;8798;51.938;4.348;2023-09-08T04:48:05;11.67;;;8.33;;
17361;SDS011;8798;51.938;4.348;2023-09-08T04:50:35;14.70;;;8.30;;
17361;SDS011;8798;51.938;4.348;2023-09-08T04:53:03;13.40;;;7.57;;
17361;SDS011;8798;51.938;4.348;2023-09-08T04:55:31;10.80;;;7.50;;
17361;SDS011;8798;51.938;4.348;2023-09-08T04:57:59;11.23;;;7.77;;
17361;SDS011;8798;51.938;4.348;2023-09-08T05:00:27;11.93;;;7.57;;
17361;SDS011;8798;51.938;4.348;2023-09-08T05:02:55;10.50;;;7.67;;
17361;SDS011;8798;51.938;4.348;2023-09-08T05:05:23;10.03;;;7.20;;
17361;SDS011;8798;51.938;4.348;2023-09-08T05:07:52;12.53;;;7.57;;
17361;SDS011;8798;51.938;4.348;2023-09-08T05:10:22;11.60;;;6.83;;
17361;SDS011;8798;51.938;4.348;2023-09-08T05:12:50;10.87;;;7.90;;
17361;SDS011;8798;51.938;4.348;2023-09-08T05:15:19;15.83;;;7.73;;
17361;SDS011;8798;51.938;4.348;2023-09-08T05:17:47;9.53;;;7.03;;
17361;SDS011;8798;51.938;4.348;2023-09-08T05:20:15;12.33;;;7.30;;
17361;SDS011;8798;51.938;4.348;2023-09-08T05:22:43;12.53;;;7.07;;
17361;SDS011;8798;51.938;4.348;2023-09-08T05:25:13;12.53;;;8.03;;
17361;SDS011;8798;51.938;4.348;2023-09-08T05:27:41;15.23;;;9.43;;
17361;SDS011;8798;51.938;4.348;2023-09-08T05:30:09;11.57;;;7.93;;
17361;SDS011;8798;51.938;4.348;2023-09-08T05:32:37;11.47;;;7.30;;
17361;SDS011;8798;51.938;4.348;2023-09-08T05:35:06;10.97;;;7.33;;
17361;SDS011;8798;51.938;4.348;2023-09-08T05:37:34;14.60;;;9.60;;
17361;SDS011;8798;51.938;4.348;2023-09-08T05:40:02;13.77;;;8.10;;
17361;SDS011;8798;51.938;4.348;2023-09-08T05:42:33;13.50;;;8.30;;
17361;SDS011;8798;51.938;4.348;2023-09-08T05:45:01;12.47;;;7.70;;
17361;SDS011;8798;51.938;4.348;2023-09-08T05:47:29;12.00;;;7.73;;
17361;SDS011;8798;51.938;4.348;2023-09-08T05:49:59;14.87;;;8.00;;
17361;SDS011;8798;51.938;4.348;2023-09-08T05:52:27;12.50;;;7.40;;
17361;SDS011;8798;51.938;4.348;2023-09-08T05:54:55;10.70;;;7.43;;
17361;SDS011;8798;51.938;4.348;2023-09-08T05:57:28;13.53;;;7.77;;
17361;SDS011;8798;51.938;4.348;2023-09-08T05:59:58;44.70;;;9.20;;
17361;SDS011;8798;51.938;4.348;2023-09-08T06:02:26;23.60;;;8.33;;
17361;SDS011;8798;51.938;4.348;2023-09-08T06:04:54;20.73;;;8.23;;
17361;SDS011;8798;51.938;4.348;2023-09-08T06:07:22;15.37;;;8.03;;
17361;SDS011;8798;51.938;4.348;2023-09-08T06:09:50;11.20;;;7.47;;
17361;SDS011;8798;51.938;4.348;2023-09-08T06:12:18;13.00;;;8.63;;
17361;SDS011;8798;51.938;4.348;2023-09-08T06:14:46;14.97;;;8.07;;
17361;SDS011;8798;51.938;4.348;2023-09-08T06:17:16;12.13;;;7.70;;
17361;SDS011;8798;51.938;4.348;2023-09-08T06:19:44;13.00;;;8.40;;
17361;SDS011;8798;51.938;4.348;2023-09-08T06:22:12;14.70;;;8.47;;
17361;SDS011;8798;51.938;4.348;2023-09-08T06:24:40;12.87;;;8.23;;
17361;SDS011;8798;51.938;4.348;2023-09-08T06:27:08;15.00;;;8.33;;
17361;SDS011;8798;51.938;4.348;2023-09-08T06:29:37;15.53;;;9.57;;
17361;SDS011;8798;51.938;4.348;2023-09-08T06:32:06;17.03;;;9.20;;
17361;SDS011;8798;51.938;4.348;2023-09-08T06:34:35;14.83;;;8.73;;
17361;SDS011;8798;51.938;4.348;2023-09-08T06:37:04;13.60;;;8.53;;
17361;SDS011;8798;51.938;4.348;2023-09-08T06:39:32;14.50;;;9.10;;
17361;SDS011;8798;51.938;4.348;2023-09-08T06:42:00;11.23;;;7.93;;
17361;SDS011;8798;51.938;4.348;2023-09-08T06:44:28;15.70;;;8.90;;
17361;SDS011;8798;51.938;4.348;2023-09-08T06:46:56;13.83;;;8.83;;
17361;SDS011;8798;51.938;4.348;2023-09-08T06:49:23;13.50;;;9.27;;
17361;SDS011;8798;51.938;4.348;2023-09-08T06:51:53;18.57;;;9.57;;
17361;SDS011;8798;51.938;4.348;2023-09-08T06:54:21;16.27;;;10.20;;
17361;SDS011;8798;51.938;4.348;2023-09-08T06:56:49;15.20;;;9.53;;
17361;SDS011;8798;51.938;4.348;2023-09-08T06:59:17;15.53;;;9.63;;
17361;SDS011;8798;51.938;4.348;2023-09-08T07:01:45;15.40;;;9.73;;
17361;SDS011;8798;51.938;4.348;2023-09-08T07:04:13;14.67;;;11.00;;
17361;SDS011;8798;51.938;4.348;2023-09-08T07:06:41;24.07;;;12.67;;
17361;SDS011;8798;51.938;4.348;2023-09-08T07:09:12;22.27;;;12.77;;
17361;SDS011;8798;51.938;4.348;2023-09-08T07:11:40;20.73;;;12.40;;
17361;SDS011;8798;51.938;4.348;2023-09-08T07:14:08;18.03;;;12.43;;
17361;SDS011;8798;51.938;4.348;2023-09-08T07:16:36;19.33;;;11.53;;
17361;SDS011;8798;51.938;4.348;2023-09-08T07:19:04;19.00;;;12.20;;
17361;SDS011;8798;51.938;4.348;2023-09-08T07:21:32;15.97;;;10.90;;
17361;SDS011;8798;51.938;4.348;2023-09-08T07:24:00;24.07;;;12.03;;
17361;SDS011;8798;51.938;4.348;2023-09-08T07:26:30;20.93;;;11.63;;
17361;SDS011;8798;51.938;4.348;2023-09-08T07:28:58;18.90;;;12.00;;
17361;SDS011;8798;51.938;4.348;2023-09-08T07:31:26;20.43;;;12.00;;
17361;SDS011;8798;51.938;4.348;2023-09-08T07:33:54;16.50;;;11.43;;
17361;SDS011;8798;51.938;4.348;2023-09-08T07:36:22;18.60;;;12.57;;
17361;SDS011;8798;51.938;4.348;2023-09-08T07:38:50;18.37;;;11.73;;
17361;SDS011;8798;51.938;4.348;2023-09-08T07:41:18;20.90;;;12.13;;
17361;SDS011;8798;51.938;4.348;2023-09-08T07:43:47;19.23;;;11.50;;
17361;SDS011;8798;51.938;4.348;2023-09-08T07:46:17;18.80;;;11.93;;
17361;SDS011;8798;51.938;4.348;2023-09-08T07:48:45;19.40;;;11.23;;
17361;SDS011;8798;51.938;4.348;2023-09-08T07:51:13;18.23;;;12.00;;
17361;SDS011;8798;51.938;4.348;2023-09-08T07:53:41;20.67;;;11.67;;
17361;SDS011;8798;51.938;4.348;2023-09-08T07:56:10;19.40;;;11.60;;
17361;SDS011;8798;51.938;4.348;2023-09-08T07:58:39;18.65;;;11.73;;
17361;SDS011;8798;51.938;4.348;2023-09-08T08:01:08;16.93;;;11.70;;
17361;SDS011;8798;51.938;4.348;2023-09-08T08:03:36;18.37;;;11.60;;
17361;SDS011;8798;51.938;4.348;2023-09-08T08:06:04;17.43;;;12.00;;
17361;SDS011;8798;51.938;4.348;2023-09-08T08:08:32;17.73;;;12.03;;
17361;SDS011;8798;51.938;4.348;2023-09-08T08:11:08;20.70;;;12.07;;
17361;SDS011;8798;51.938;4.348;2023-09-08T08:13:37;18.13;;;11.90;;
17361;SDS011;8798;51.938;4.348;2023-09-08T08:16:05;16.27;;;10.98;;
17361;SDS011;8798;51.938;4.348;2023-09-08T08:18:35;19.35;;;11.02;;
17361;SDS011;8798;51.938;4.348;2023-09-08T08:21:04;15.73;;;10.27;;
17361;SDS011;8798;51.938;4.348;2023-09-08T08:23:32;14.02;;;9.57;;
17361;SDS011;8798;51.938;4.348;2023-09-08T08:26:00;14.02;;;8.75;;
17361;SDS011;8798;51.938;4.348;2023-09-08T08:28:29;16.85;;;7.95;;
17361;SDS011;8798;51.938;4.348;2023-09-08T08:30:58;18.95;;;8.70;;
17361;SDS011;8798;51.938;4.348;2023-09-08T08:33:25;19.83;;;8.77;;
17361;SDS011;8798;51.938;4.348;2023-09-08T08:35:57;11.65;;;7.60;;
17361;SDS011;8798;51.938;4.348;2023-09-08T08:38:24;14.07;;;7.70;;
17361;SDS011;8798;51.938;4.348;2023-09-08T08:40:52;15.73;;;8.50;;
17361;SDS011;8798;51.938;4.348;2023-09-08T08:43:21;13.68;;;7.30;;
17361;SDS011;8798;51.938;4.348;2023-09-08T08:45:49;12.20;;;6.50;;
17361;SDS011;8798;51.938;4.348;2023-09-08T08:48:18;11.55;;;6.90;;
17361;SDS011;8798;51.938;4.348;2023-09-08T08:50:51;19.33;;;7.32;;
17361;SDS011;8798;51.938;4.348;2023-09-08T08:53:21;11.85;;;7.07;;
17361;SDS011;8798;51.938;4.348;2023-09-08T08:55:49;10.13;;;6.70;;
17361;SDS011;8798;51.938;4.348;2023-09-08T08:58:19;9.90;;;6.90;;
17361;SDS011;8798;51.938;4.348;2023-09-08T09:00:51;8.55;;;6.60;;
17361;SDS011;8798;51.938;4.348;2023-09-08T09:03:20;10.15;;;7.07;;
17361;SDS011;8798;51.938;4.348;2023-09-08T09:05:50;8.77;;;6.80;;
17361;SDS011;8798;51.938;4.348;2023-09-08T09:08:20;10.52;;;6.80;;
17361;SDS011;8798;51.938;4.348;2023-09-08T09:10:51;10.32;;;6.93;;
17361;SDS011;8798;51.938;4.348;2023-09-08T09:13:19;11.15;;;7.20;;
17361;SDS011;8798;51.938;4.348;2023-09-08T09:15:48;11.38;;;7.28;;
17361;SDS011;8798;51.938;4.348;2023-09-08T09:18:16;8.38;;;6.90;;
17361;SDS011;8798;51.938;4.348;2023-09-08T09:20:53;10.90;;;7.57;;
17361;SDS011;8798;51.938;4.348;2023-09-08T09:23:30;9.48;;;7.22;;
17361;SDS011;8798;51.938;4.348;2023-09-08T09:25:59;11.20;;;8.25;;
17361;SDS011;8798;51.938;4.348;2023-09-08T09:28:30;9.95;;;7.57;;
17361;SDS011;8798;51.938;4.348;2023-09-08T09:30:59;8.52;;;7.32;;
17361;SDS011;8798;51.938;4.348;2023-09-08T09:33:27;8.60;;;7.28;;
17361;SDS011;8798;51.938;4.348;2023-09-08T09:35:56;10.07;;;7.82;;
17361;SDS011;8798;51.938;4.348;2023-09-08T09:38:25;11.18;;;8.00;;
17361;SDS011;8798;51.938;4.348;2023-09-08T09:40:56;11.57;;;8.07;;
17361;SDS011;8798;51.938;4.348;2023-09-08T09:43:24;12.10;;;8.18;;
17361;SDS011;8798;51.938;4.348;2023-09-08T09:45:56;12.25;;;8.50;;
17361;SDS011;8798;51.938;4.348;2023-09-08T09:48:24;14.02;;;9.38;;
17361;SDS011;8798;51.938;4.348;2023-09-08T09:50:52;8.20;;;7.30;;
17361;SDS011;8798;51.938;4.348;2023-09-08T09:53:20;10.13;;;8.18;;
17361;SDS011;8798;51.938;4.348;2023-09-08T09:55:48;11.18;;;8.00;;
17361;SDS011;8798;51.938;4.348;2023-09-08T09:58:17;9.55;;;7.40;;
17361;SDS011;8798;51.938;4.348;2023-09-08T10:00:48;9.27;;;8.27;;
17361;SDS011;8798;51.938;4.348;2023-09-08T10:03:18;7.55;;;6.65;;
17361;SDS011;8798;51.938;4.348;2023-09-08T10:05:47;8.05;;;6.22;;
17361;SDS011;8798;51.938;4.348;2023-09-08T10:08:16;5.80;;;5.20;;
17361;SDS011;8798;51.938;4.348;2023-09-08T10:10:44;9.77;;;7.20;;
17361;SDS011;8798;51.938;4.348;2023-09-08T10:13:14;10.40;;;7.00;;
17361;SDS011;8798;51.938;4.348;2023-09-08T10:15:50;8.10;;;6.20;;
17361;SDS011;8798;51.938;4.348;2023-09-08T10:18:20;8.25;;;7.13;;
17361;SDS011;8798;51.938;4.348;2023-09-08T10:20:50;9.70;;;6.72;;
17361;SDS011;8798;51.938;4.348;2023-09-08T10:23:22;7.43;;;6.70;;
17361;SDS011;8798;51.938;4.348;2023-09-08T10:25:55;9.60;;;6.82;;
17361;SDS011;8798;51.938;4.348;2023-09-08T10:28:30;8.43;;;7.22;;
17361;SDS011;8798;51.938;4.348;2023-09-08T10:31:00;8.68;;;6.15;;
17361;SDS011;8798;51.938;4.348;2023-09-08T10:33:29;6.72;;;5.75;;
17361;SDS011;8798;51.938;4.348;2023-09-08T10:35:58;11.30;;;6.40;;
17361;SDS011;8798;51.938;4.348;2023-09-08T10:38:31;6.53;;;5.68;;
17361;SDS011;8798;51.938;4.348;2023-09-08T10:43:57;8.77;;;6.85;;
17361;SDS011;8798;51.938;4.348;2023-09-08T10:46:27;8.70;;;6.78;;
17361;SDS011;8798;51.938;4.348;2023-09-08T10:49:00;7.75;;;6.38;;
17361;SDS011;8798;51.938;4.348;2023-09-08T10:51:30;10.38;;;6.80;;
17361;SDS011;8798;51.938;4.348;2023-09-08T10:53:58;8.02;;;6.60;;
17361;SDS011;8798;51.938;4.348;2023-09-08T10:56:31;7.35;;;6.65;;
17361;SDS011;8798;51.938;4.348;2023-09-08T10:59:17;9.00;;;6.65;;
17361;SDS011;8798;51.938;4.348;2023-09-08T11:01:46;7.28;;;5.45;;
17361;SDS011;8798;51.938;4.348;2023-09-08T11:04:15;7.90;;;6.20;;
17361;SDS011;8798;51.938;4.348;2023-09-08T11:06:45;6.45;;;5.68;;
17361;SDS011;8798;51.938;4.348;2023-09-08T11:09:13;8.68;;;6.60;;
17361;SDS011;8798;51.938;4.348;2023-09-08T11:11:41;7.65;;;6.03;;
17361;SDS011;8798;51.938;4.348;2023-09-08T11:14:10;8.55;;;7.75;;
17361;SDS011;8798;51.938;4.348;2023-09-08T11:16:39;7.43;;;6.40;;
17361;SDS011;8798;51.938;4.348;2023-09-08T11:19:07;6.70;;;5.80;;
17361;SDS011;8798;51.938;4.348;2023-09-08T11:21:36;6.97;;;6.03;;
17361;SDS011;8798;51.938;4.348;2023-09-08T11:24:07;6.45;;;5.85;;
17361;SDS011;8798;51.938;4.348;2023-09-08T11:26:36;4.15;;;3.75;;
17361;SDS011;8798;51.938;4.348;2023-09-08T11:29:04;4.20;;;3.80;;
17361;SDS011;8798;51.938;4.348;2023-09-08T11:31:32;4.40;;;3.67;;
17361;SDS011;8798;51.938;4.348;2023-09-08T11:34:03;5.28;;;4.15;;
17361;SDS011;8798;51.938;4.348;2023-09-08T11:36:32;4.93;;;4.30;;
17361;SDS011;8798;51.938;4.348;2023-09-08T11:38:59;5.97;;;3.97;;
17361;SDS011;8798;51.938;4.348;2023-09-08T11:41:27;4.78;;;3.60;;
17361;SDS011;8798;51.938;4.348;2023-09-08T11:43:55;5.35;;;3.67;;
17361;SDS011;8798;51.938;4.348;2023-09-08T11:46:24;4.10;;;3.70;;
17361;SDS011;8798;51.938;4.348;2023-09-08T11:48:53;4.45;;;3.45;;
17361;SDS011;8798;51.938;4.348;2023-09-08T11:51:23;3.75;;;3.42;;
17361;SDS011;8798;51.938;4.348;2023-09-08T11:53:51;5.78;;;3.67;;
17361;SDS011;8798;51.938;4.348;2023-09-08T11:56:19;4.30;;;3.25;;
17361;SDS011;8798;51.938;4.348;2023-09-08T11:58:48;3.95;;;3.40;;
17361;SDS011;8798;51.938;4.348;2023-09-08T12:01:16;4.25;;;3.50;;
17361;SDS011;8798;51.938;4.348;2023-09-08T12:03:51;3.83;;;3.13;;
17361;SDS011;8798;51.938;4.348;2023-09-08T12:06:19;4.22;;;3.42;;
17361;SDS011;8798;51.938;4.348;2023-09-08T12:08:54;3.83;;;2.80;;
17361;SDS011;8798;51.938;4.348;2023-09-08T12:11:22;3.50;;;3.17;;
17361;SDS011;8798;51.938;4.348;2023-09-08T12:13:50;4.20;;;3.80;;
17361;SDS011;8798;51.938;4.348;2023-09-08T12:16:27;3.67;;;3.38;;
17361;SDS011;8798;51.938;4.348;2023-09-08T12:18:55;5.97;;;3.60;;
17361;SDS011;8798;51.938;4.348;2023-09-08T12:21:24;3.92;;;3.55;;
17361;SDS011;8798;51.938;4.348;2023-09-08T12:23:53;3.53;;;3.20;;
17361;SDS011;8798;51.938;4.348;2023-09-08T12:26:22;4.85;;;3.35;;
17361;SDS011;8798;51.938;4.348;2023-09-08T12:28:52;3.47;;;3.10;;
17361;SDS011;8798;51.938;4.348;2023-09-08T12:31:22;4.03;;;2.78;;
17361;SDS011;8798;51.938;4.348;2023-09-08T12:33:50;3.50;;;3.20;;
17361;SDS011;8798;51.938;4.348;2023-09-08T12:36:19;3.40;;;3.10;;
17361;SDS011;8798;51.938;4.348;2023-09-08T12:38:49;3.60;;;3.28;;
17361;SDS011;8798;51.938;4.348;2023-09-08T12:41:18;4.15;;;3.15;;
17361;SDS011;8798;51.938;4.348;2023-09-08T12:43:46;4.03;;;3.30;;
17361;SDS011;8798;51.938;4.348;2023-09-08T12:46:16;4.28;;;3.17;;
17361;SDS011;8798;51.938;4.348;2023-09-08T12:48:44;5.45;;;3.28;;
17361;SDS011;8798;51.938;4.348;2023-09-08T12:51:12;3.45;;;3.08;;
17361;SDS011;8798;51.938;4.348;2023-09-08T12:53:43;3.17;;;2.88;;
17361;SDS011;8798;51.938;4.348;2023-09-08T12:56:13;5.03;;;3.60;;
17361;SDS011;8798;51.938;4.348;2023-09-08T12:58:41;4.50;;;3.28;;
17361;SDS011;8798;51.938;4.348;2023-09-08T13:01:08;4.78;;;3.30;;
17361;SDS011;8798;51.938;4.348;2023-09-08T13:03:36;3.30;;;3.00;;
17361;SDS011;8798;51.938;4.348;2023-09-08T13:06:04;3.13;;;2.83;;
17361;SDS011;8798;51.938;4.348;2023-09-08T13:08:32;5.25;;;3.10;;
17361;SDS011;8798;51.938;4.348;2023-09-08T13:11:01;4.63;;;3.38;;
17361;SDS011;8798;51.938;4.348;2023-09-08T13:13:31;3.42;;;2.88;;
17361;SDS011;8798;51.938;4.348;2023-09-08T13:15:59;4.63;;;3.10;;
17361;SDS011;8798;51.938;4.348;2023-09-08T13:18:26;4.05;;;3.30;;
17361;SDS011;8798;51.938;4.348;2023-09-08T13:20:54;3.55;;;3.25;;
17361;SDS011;8798;51.938;4.348;2023-09-08T13:23:22;3.90;;;3.50;;
17361;SDS011;8798;51.938;4.348;2023-09-08T13:25:50;4.38;;;3.45;;
17361;SDS011;8798;51.938;4.348;2023-09-08T13:28:18;4.43;;;3.40;;
17361;SDS011;8798;51.938;4.348;2023-09-08T13:30:48;3.58;;;3.03;;
17361;SDS011;8798;51.938;4.348;2023-09-08T13:33:15;3.67;;;3.20;;
17361;SDS011;8798;51.938;4.348;2023-09-08T13:35:43;3.05;;;2.70;;
17361;SDS011;8798;51.938;4.348;2023-09-08T13:38:11;4.05;;;3.08;;
17361;SDS011;8798;51.938;4.348;2023-09-08T13:40:39;4.22;;;2.90;;
17361;SDS011;8798;51.938;4.348;2023-09-08T13:43:08;4.43;;;3.42;;
17361;SDS011;8798;51.938;4.348;2023-09-08T13:45:37;3.80;;;3.38;;
17361;SDS011;8798;51.938;4.348;2023-09-08T13:48:07;3.40;;;3.10;;
17361;SDS011;8798;51.938;4.348;2023-09-08T13:50:37;5.15;;;3.13;;
17361;SDS011;8798;51.938;4.348;2023-09-08T13:53:06;3.40;;;3.10;;
17361;SDS011;8798;51.938;4.348;2023-09-08T13:55:35;3.45;;;2.95;;
17361;SDS011;8798;51.938;4.348;2023-09-08T13:58:08;4.05;;;3.13;;
17361;SDS011;8798;51.938;4.348;2023-09-08T14:00:36;3.30;;;3.00;;
17361;SDS011;8798;51.938;4.348;2023-09-08T14:03:13;9.05;;;3.42;;
17361;SDS011;8798;51.938;4.348;2023-09-08T14:05:47;4.82;;;3.05;;
17361;SDS011;8798;51.938;4.348;2023-09-08T14:08:20;4.35;;;3.42;;
17361;SDS011;8798;51.938;4.348;2023-09-08T14:10:52;3.35;;;3.05;;
17361;SDS011;8798;51.938;4.348;2023-09-08T14:13:23;5.03;;;3.63;;
17361;SDS011;8798;51.938;4.348;2023-09-08T14:15:52;5.05;;;3.03;;
17361;SDS011;8798;51.938;4.348;2023-09-08T14:18:22;4.65;;;3.15;;
17361;SDS011;8798;51.938;4.348;2023-09-08T14:20:50;3.75;;;3.15;;
17361;SDS011;8798;51.938;4.348;2023-09-08T14:23:18;3.67;;;2.92;;
17361;SDS011;8798;51.938;4.348;2023-09-08T14:25:46;4.60;;;3.22;;
17361;SDS011;8798;51.938;4.348;2023-09-08T14:28:14;3.80;;;2.85;;
17361;SDS011;8798;51.938;4.348;2023-09-08T14:30:44;4.32;;;2.88;;
17361;SDS011;8798;51.938;4.348;2023-09-08T14:33:11;4.70;;;3.17;;
17361;SDS011;8798;51.938;4.348;2023-09-08T14:35:42;4.00;;;2.95;;
17361;SDS011;8798;51.938;4.348;2023-09-08T14:38:10;4.53;;;3.22;;
17361;SDS011;8798;51.938;4.348;2023-09-08T14:40:39;5.18;;;3.67;;
17361;SDS011;8798;51.938;4.348;2023-09-08T14:43:07;3.88;;;3.17;;
17361;SDS011;8798;51.938;4.348;2023-09-08T14:45:35;4.65;;;3.15;;
17361;SDS011;8798;51.938;4.348;2023-09-08T14:48:03;3.47;;;3.17;;
17361;SDS011;8798;51.938;4.348;2023-09-08T14:50:31;4.13;;;3.17;;
17361;SDS011;8798;51.938;4.348;2023-09-08T14:53:01;3.22;;;2.92;;
17361;SDS011;8798;51.938;4.348;2023-09-08T14:55:28;3.88;;;2.90;;
17361;SDS011;8798;51.938;4.348;2023-09-08T14:57:57;3.30;;;3.00;;
17361;SDS011;8798;51.938;4.348;2023-09-08T15:00:26;3.60;;;2.95;;
17361;SDS011;8798;51.938;4.348;2023-09-08T15:02:54;4.00;;;2.95;;
17361;SDS011;8798;51.938;4.348;2023-09-08T15:05:22;5.05;;;3.20;;
17361;SDS011;8798;51.938;4.348;2023-09-08T15:07:50;3.20;;;2.72;;